sensor_id;sensor_type;location;lat;lon;timestamp;pressure;altitude;pressure_sealevel;temperature;humidity
64230;BME280;50547;49.498;0.092;2023-02-10T00:01:33;1034.80;;;11.42;76.21
64230;BME280;50547;49.498;0.092;2023-02-10T00:04:03;1034.82;;;11.32;76.79
64230;BME280;50547;49.498;0.092;2023-02-10T00:06:33;1034.84;;;11.24;76.42
64230;BME280;50547;49.498;0.092;2023-02-10T00:09:03;1034.82;;;11.10;76.32
64230;BME280;50547;49.498;0.092;2023-02-10T00:11:32;1034.84;;;10.88;77.65
64230;BME280;50547;49.498;0.092;2023-02-10T00:14:01;1034.84;;;10.89;77.30
64230;BME280;50547;49.498;0.092;2023-02-10T00:16:30;1034.82;;;10.90;76.98
64230;BME280;50547;49.498;0.092;2023-02-10T00:18:59;1034.82;;;10.97;76.73
64230;BME280;50547;49.498;0.092;2023-02-10T00:21:29;1034.80;;;11.10;76.17
64230;BME280;50547;49.498;0.092;2023-02-10T00:23:58;1034.80;;;11.29;75.57
64230;BME280;50547;49.498;0.092;2023-02-10T00:26:27;1034.80;;;11.44;75.56
64230;BME280;50547;49.498;0.092;2023-02-10T00:28:56;1034.84;;;11.58;75.32
64230;BME280;50547;49.498;0.092;2023-02-10T00:31:25;1034.86;;;11.72;75.02
64230;BME280;50547;49.498;0.092;2023-02-10T00:33:54;1034.86;;;11.68;75.09
64230;BME280;50547;49.498;0.092;2023-02-10T00:36:24;1034.88;;;11.35;76.23
64230;BME280;50547;49.498;0.092;2023-02-10T00:38:53;1034.84;;;11.37;75.95
64230;BME280;50547;49.498;0.092;2023-02-10T00:41:23;1034.84;;;11.26;76.36
64230;BME280;50547;49.498;0.092;2023-02-10T00:43:53;1034.80;;;11.30;76.15
64230;BME280;50547;49.498;0.092;2023-02-10T00:46:22;1034.80;;;11.36;75.83
64230;BME280;50547;49.498;0.092;2023-02-10T00:48:52;1034.82;;;11.10;77.01
64230;BME280;50547;49.498;0.092;2023-02-10T00:51:21;1034.76;;;11.01;77.34
64230;BME280;50547;49.498;0.092;2023-02-10T00:53:50;1034.74;;;10.39;80.74
64230;BME280;50547;49.498;0.092;2023-02-10T00:56:20;1034.78;;;10.42;80.37
64230;BME280;50547;49.498;0.092;2023-02-10T00:58:49;1034.74;;;10.23;80.94
64230;BME280;50547;49.498;0.092;2023-02-10T01:01:18;1034.70;;;10.13;81.38
64230;BME280;50547;49.498;0.092;2023-02-10T01:03:47;1034.74;;;10.00;81.72
64230;BME280;50547;49.498;0.092;2023-02-10T01:06:16;1034.72;;;9.86;82.48
64230;BME280;50547;49.498;0.092;2023-02-10T01:08:45;1034.76;;;9.79;82.49
64230;BME280;50547;49.498;0.092;2023-02-10T01:11:14;1034.74;;;9.80;82.46
64230;BME280;50547;49.498;0.092;2023-02-10T01:13:43;1034.72;;;9.85;82.22
64230;BME280;50547;49.498;0.092;2023-02-10T01:16:15;1034.72;;;9.88;82.14
64230;BME280;50547;49.498;0.092;2023-02-10T01:18:44;1034.72;;;9.85;82.53
64230;BME280;50547;49.498;0.092;2023-02-10T01:21:15;1034.72;;;10.03;81.44
64230;BME280;50547;49.498;0.092;2023-02-10T01:23:46;1034.78;;;10.19;80.90
64230;BME280;50547;49.498;0.092;2023-02-10T01:26:16;1034.78;;;10.21;81.04
64230;BME280;50547;49.498;0.092;2023-02-10T01:28:45;1034.74;;;10.15;81.86
64230;BME280;50547;49.498;0.092;2023-02-10T01:31:16;1034.72;;;10.13;82.11
64230;BME280;50547;49.498;0.092;2023-02-10T01:33:46;1034.70;;;9.96;83.35
64230;BME280;50547;49.498;0.092;2023-02-10T01:36:17;1034.70;;;9.94;83.42
64230;BME280;50547;49.498;0.092;2023-02-10T01:38:47;1034.72;;;10.06;82.84
64230;BME280;50547;49.498;0.092;2023-02-10T01:41:19;1034.72;;;10.14;82.60
64230;BME280;50547;49.498;0.092;2023-02-10T01:43:59;1034.72;;;10.29;82.24
64230;BME280;50547;49.498;0.092;2023-02-10T01:46:30;1034.68;;;10.11;83.69
64230;BME280;50547;49.498;0.092;2023-02-10T01:49:01;1034.70;;;10.16;83.57
64230;BME280;50547;49.498;0.092;2023-02-10T01:51:38;1034.70;;;10.21;83.56
64230;BME280;50547;49.498;0.092;2023-02-10T01:54:10;1034.68;;;10.30;83.19
64230;BME280;50547;49.498;0.092;2023-02-10T01:56:40;1034.68;;;10.24;83.91
64230;BME280;50547;49.498;0.092;2023-02-10T01:59:10;1034.66;;;10.20;84.25
64230;BME280;50547;49.498;0.092;2023-02-10T02:01:40;1034.64;;;10.13;84.58
64230;BME280;50547;49.498;0.092;2023-02-10T02:04:09;1034.64;;;9.97;85.64
64230;BME280;50547;49.498;0.092;2023-02-10T02:06:38;1034.64;;;9.95;85.56
64230;BME280;50547;49.498;0.092;2023-02-10T02:09:09;1034.66;;;9.92;85.55
64230;BME280;50547;49.498;0.092;2023-02-10T02:11:43;1034.62;;;9.92;85.31
64230;BME280;50547;49.498;0.092;2023-02-10T02:14:28;1034.58;;;9.94;85.24
64230;BME280;50547;49.498;0.092;2023-02-10T02:17:04;1034.60;;;9.73;86.16
64230;BME280;50547;49.498;0.092;2023-02-10T02:19:52;1034.62;;;9.65;86.46
64230;BME280;50547;49.498;0.092;2023-02-10T02:22:47;1034.57;;;9.72;85.87
64230;BME280;50547;49.498;0.092;2023-02-10T02:25:34;1034.57;;;9.61;86.23
64230;BME280;50547;49.498;0.092;2023-02-10T02:28:14;1034.55;;;9.63;86.00
64230;BME280;50547;49.498;0.092;2023-02-10T02:31:35;1034.51;;;9.76;85.56
64230;BME280;50547;49.498;0.092;2023-02-10T02:34:13;1034.53;;;9.71;85.86
64230;BME280;50547;49.498;0.092;2023-02-10T02:36:49;1034.53;;;9.70;86.05
64230;BME280;50547;49.498;0.092;2023-02-10T02:39:21;1034.47;;;9.71;86.14
64230;BME280;50547;49.498;0.092;2023-02-10T02:44:33;1034.53;;;9.53;86.85
64230;BME280;50547;49.498;0.092;2023-02-10T02:47:06;1034.51;;;9.48;87.00
64230;BME280;50547;49.498;0.092;2023-02-10T02:49:46;1034.45;;;9.49;86.84
64230;BME280;50547;49.498;0.092;2023-02-10T02:52:23;1034.47;;;9.38;87.32
64230;BME280;50547;49.498;0.092;2023-02-10T02:54:59;1034.43;;;9.27;87.89
64230;BME280;50547;49.498;0.092;2023-02-10T02:57:34;1034.47;;;9.24;88.11
64230;BME280;50547;49.498;0.092;2023-02-10T03:00:06;1034.47;;;9.32;87.72
64230;BME280;50547;49.498;0.092;2023-02-10T03:02:38;1034.47;;;9.46;87.07
64230;BME280;50547;49.498;0.092;2023-02-10T03:05:08;1034.45;;;9.46;87.26
64230;BME280;50547;49.498;0.092;2023-02-10T03:07:37;1034.43;;;9.69;86.57
64230;BME280;50547;49.498;0.092;2023-02-10T03:10:06;1034.45;;;9.66;86.84
64230;BME280;50547;49.498;0.092;2023-02-10T03:12:35;1034.43;;;9.71;86.96
64230;BME280;50547;49.498;0.092;2023-02-10T03:15:05;1034.45;;;9.60;87.67
64230;BME280;50547;49.498;0.092;2023-02-10T03:17:34;1034.49;;;9.49;88.36
64230;BME280;50547;49.498;0.092;2023-02-10T03:20:04;1034.49;;;9.51;88.06
64230;BME280;50547;49.498;0.092;2023-02-10T03:22:33;1034.55;;;9.35;88.43
64230;BME280;50547;49.498;0.092;2023-02-10T03:25:02;1034.60;;;9.24;88.99
64230;BME280;50547;49.498;0.092;2023-02-10T03:27:31;1034.57;;;9.48;87.51
64230;BME280;50547;49.498;0.092;2023-02-10T03:30:00;1034.57;;;9.55;87.17
64230;BME280;50547;49.498;0.092;2023-02-10T03:32:29;1034.51;;;9.33;88.47
64230;BME280;50547;49.498;0.092;2023-02-10T03:34:58;1034.51;;;9.35;88.51
64230;BME280;50547;49.498;0.092;2023-02-10T03:37:27;1034.53;;;9.43;88.14
64230;BME280;50547;49.498;0.092;2023-02-10T03:39:56;1034.51;;;9.50;87.85
64230;BME280;50547;49.498;0.092;2023-02-10T03:42:25;1034.53;;;9.50;88.08
64230;BME280;50547;49.498;0.092;2023-02-10T03:44:54;1034.53;;;9.76;86.99
64230;BME280;50547;49.498;0.092;2023-02-10T03:47:23;1034.60;;;9.89;86.58
64230;BME280;50547;49.498;0.092;2023-02-10T03:49:53;1034.64;;;9.73;87.33
64230;BME280;50547;49.498;0.092;2023-02-10T03:52:22;1034.70;;;9.71;87.48
64230;BME280;50547;49.498;0.092;2023-02-10T03:54:51;1034.68;;;9.94;86.22
64230;BME280;50547;49.498;0.092;2023-02-10T03:57:20;1034.70;;;9.84;86.86
64230;BME280;50547;49.498;0.092;2023-02-10T03:59:49;1034.76;;;9.73;87.72
64230;BME280;50547;49.498;0.092;2023-02-10T04:02:18;1034.72;;;9.66;88.13
64230;BME280;50547;49.498;0.092;2023-02-10T04:04:44;1034.72;;;9.73;87.54
64230;BME280;50547;49.498;0.092;2023-02-10T04:07:13;1034.76;;;9.75;87.37
64230;BME280;50547;49.498;0.092;2023-02-10T04:09:42;1034.86;;;9.70;87.74
64230;BME280;50547;49.498;0.092;2023-02-10T04:12:11;1034.90;;;9.71;87.76
64230;BME280;50547;49.498;0.092;2023-02-10T04:14:40;1034.90;;;9.64;88.18
64230;BME280;50547;49.498;0.092;2023-02-10T04:17:09;1034.88;;;9.62;88.24
64230;BME280;50547;49.498;0.092;2023-02-10T04:19:38;1034.86;;;9.57;88.50
64230;BME280;50547;49.498;0.092;2023-02-10T04:22:08;1034.88;;;9.59;88.30
64230;BME280;50547;49.498;0.092;2023-02-10T04:24:37;1034.92;;;9.71;87.58
64230;BME280;50547;49.498;0.092;2023-02-10T04:27:05;1034.96;;;9.76;87.28
64230;BME280;50547;49.498;0.092;2023-02-10T04:29:34;1035.00;;;9.93;86.66
64230;BME280;50547;49.498;0.092;2023-02-10T04:32:04;1035.03;;;9.98;86.62
64230;BME280;50547;49.498;0.092;2023-02-10T04:34:33;1035.07;;;9.93;86.93
64230;BME280;50547;49.498;0.092;2023-02-10T04:37:02;1035.09;;;9.85;87.41
64230;BME280;50547;49.498;0.092;2023-02-10T04:39:31;1035.07;;;9.89;87.07
64230;BME280;50547;49.498;0.092;2023-02-10T04:42:00;1035.05;;;9.91;87.04
64230;BME280;50547;49.498;0.092;2023-02-10T04:44:29;1035.07;;;9.88;87.00
64230;BME280;50547;49.498;0.092;2023-02-10T04:46:58;1035.07;;;9.91;86.70
64230;BME280;50547;49.498;0.092;2023-02-10T04:49:28;1035.13;;;9.95;86.51
64230;BME280;50547;49.498;0.092;2023-02-10T04:51:57;1035.09;;;10.03;86.05
64230;BME280;50547;49.498;0.092;2023-02-10T04:54:26;1035.07;;;10.04;86.06
64230;BME280;50547;49.498;0.092;2023-02-10T04:56:55;1035.13;;;10.10;85.81
64230;BME280;50547;49.498;0.092;2023-02-10T04:59:24;1035.17;;;10.13;85.98
64230;BME280;50547;49.498;0.092;2023-02-10T05:01:53;1035.25;;;10.00;86.85
64230;BME280;50547;49.498;0.092;2023-02-10T05:04:22;1035.23;;;9.89;87.39
64230;BME280;50547;49.498;0.092;2023-02-10T05:06:51;1035.21;;;9.65;88.32
64230;BME280;50547;49.498;0.092;2023-02-10T05:09:20;1035.23;;;9.70;87.84
64230;BME280;50547;49.498;0.092;2023-02-10T05:11:49;1035.27;;;9.62;88.02
64230;BME280;50547;49.498;0.092;2023-02-10T05:14:18;1035.27;;;9.44;88.94
64230;BME280;50547;49.498;0.092;2023-02-10T05:16:47;1035.29;;;9.32;89.37
64230;BME280;50547;49.498;0.092;2023-02-10T05:19:16;1035.33;;;9.40;88.75
64230;BME280;50547;49.498;0.092;2023-02-10T05:21:46;1035.33;;;9.38;88.74
64230;BME280;50547;49.498;0.092;2023-02-10T05:24:15;1035.29;;;9.32;89.06
64230;BME280;50547;49.498;0.092;2023-02-10T05:26:44;1035.31;;;9.32;89.04
64230;BME280;50547;49.498;0.092;2023-02-10T05:29:13;1035.33;;;9.45;88.35
64230;BME280;50547;49.498;0.092;2023-02-10T05:31:42;1035.29;;;9.44;88.55
64230;BME280;50547;49.498;0.092;2023-02-10T05:34:11;1035.25;;;9.53;87.99
64230;BME280;50547;49.498;0.092;2023-02-10T05:36:40;1035.29;;;9.59;87.75
64230;BME280;50547;49.498;0.092;2023-02-10T05:39:09;1035.21;;;9.69;87.14
64230;BME280;50547;49.498;0.092;2023-02-10T05:41:38;1035.27;;;9.70;87.31
64230;BME280;50547;49.498;0.092;2023-02-10T05:44:07;1035.29;;;9.71;87.48
64230;BME280;50547;49.498;0.092;2023-02-10T05:46:37;1035.37;;;9.67;87.85
64230;BME280;50547;49.498;0.092;2023-02-10T05:49:06;1035.39;;;9.64;88.14
64230;BME280;50547;49.498;0.092;2023-02-10T05:51:35;1035.37;;;9.80;87.23
64230;BME280;50547;49.498;0.092;2023-02-10T05:54:04;1035.31;;;9.93;86.62
64230;BME280;50547;49.498;0.092;2023-02-10T05:56:34;1035.35;;;9.98;86.67
64230;BME280;50547;49.498;0.092;2023-02-10T05:59:03;1035.33;;;10.06;86.48
64230;BME280;50547;49.498;0.092;2023-02-10T06:01:32;1035.33;;;10.02;86.72
64230;BME280;50547;49.498;0.092;2023-02-10T06:04:02;1035.39;;;10.02;86.91
64230;BME280;50547;49.498;0.092;2023-02-10T06:06:31;1035.37;;;9.89;87.45
64230;BME280;50547;49.498;0.092;2023-02-10T06:09:00;1035.46;;;10.00;86.94
64230;BME280;50547;49.498;0.092;2023-02-10T06:11:29;1035.44;;;10.05;86.71
64230;BME280;50547;49.498;0.092;2023-02-10T06:13:58;1035.43;;;10.15;86.02
64230;BME280;50547;49.498;0.092;2023-02-10T06:16:27;1035.41;;;10.07;86.62
64230;BME280;50547;49.498;0.092;2023-02-10T06:18:56;1035.46;;;9.81;87.83
64230;BME280;50547;49.498;0.092;2023-02-10T06:21:25;1035.50;;;9.90;87.14
64230;BME280;50547;49.498;0.092;2023-02-10T06:23:54;1035.50;;;10.05;86.40
64230;BME280;50547;49.498;0.092;2023-02-10T06:26:23;1035.52;;;10.18;85.88
64230;BME280;50547;49.498;0.092;2023-02-10T06:28:52;1035.48;;;10.39;85.25
64230;BME280;50547;49.498;0.092;2023-02-10T06:31:21;1035.54;;;10.43;85.36
64230;BME280;50547;49.498;0.092;2023-02-10T06:33:51;1035.56;;;10.51;85.53
64230;BME280;50547;49.498;0.092;2023-02-10T06:36:20;1035.58;;;10.59;85.14
64230;BME280;50547;49.498;0.092;2023-02-10T06:38:49;1035.56;;;10.56;85.40
64230;BME280;50547;49.498;0.092;2023-02-10T06:41:18;1035.56;;;10.46;86.07
64230;BME280;50547;49.498;0.092;2023-02-10T06:43:47;1035.58;;;10.52;85.70
64230;BME280;50547;49.498;0.092;2023-02-10T06:46:16;1035.58;;;10.31;86.24
64230;BME280;50547;49.498;0.092;2023-02-10T06:48:45;1035.60;;;10.38;85.89
64230;BME280;50547;49.498;0.092;2023-02-10T06:51:14;1035.64;;;10.40;85.34
64230;BME280;50547;49.498;0.092;2023-02-10T06:53:43;1035.64;;;10.59;84.90
64230;BME280;50547;49.498;0.092;2023-02-10T06:56:12;1035.68;;;10.74;84.35
64230;BME280;50547;49.498;0.092;2023-02-10T06:58:41;1035.78;;;10.85;84.31
64230;BME280;50547;49.498;0.092;2023-02-10T07:01:12;1035.74;;;10.70;84.85
64230;BME280;50547;49.498;0.092;2023-02-10T07:03:43;1035.80;;;10.65;84.93
64230;BME280;50547;49.498;0.092;2023-02-10T07:06:13;1035.82;;;10.61;85.02
64230;BME280;50547;49.498;0.092;2023-02-10T07:08:42;1035.82;;;10.74;84.38
64230;BME280;50547;49.498;0.092;2023-02-10T07:11:11;1035.80;;;10.80;84.29
64230;BME280;50547;49.498;0.092;2023-02-10T07:13:40;1035.84;;;10.70;84.47
64230;BME280;50547;49.498;0.092;2023-02-10T07:16:09;1035.88;;;10.10;86.71
64230;BME280;50547;49.498;0.092;2023-02-10T07:18:38;1035.84;;;10.29;85.54
64230;BME280;50547;49.498;0.092;2023-02-10T07:21:07;1035.80;;;10.49;84.31
64230;BME280;50547;49.498;0.092;2023-02-10T07:23:36;1035.76;;;10.59;84.07
64230;BME280;50547;49.498;0.092;2023-02-10T07:26:06;1035.80;;;10.73;83.63
64230;BME280;50547;49.498;0.092;2023-02-10T07:28:36;1035.82;;;10.57;84.46
64230;BME280;50547;49.498;0.092;2023-02-10T07:31:05;1035.88;;;10.30;85.52
64230;BME280;50547;49.498;0.092;2023-02-10T07:33:34;1035.84;;;10.21;85.30
64230;BME280;50547;49.498;0.092;2023-02-10T07:36:03;1035.84;;;10.48;84.38
64230;BME280;50547;49.498;0.092;2023-02-10T07:38:32;1035.84;;;10.52;84.10
64230;BME280;50547;49.498;0.092;2023-02-10T07:41:02;1035.86;;;10.25;85.24
64230;BME280;50547;49.498;0.092;2023-02-10T07:43:31;1035.91;;;10.23;85.23
64230;BME280;50547;49.498;0.092;2023-02-10T07:46:00;1035.93;;;10.25;84.89
64230;BME280;50547;49.498;0.092;2023-02-10T07:48:29;1035.91;;;10.30;84.61
64230;BME280;50547;49.498;0.092;2023-02-10T07:50:58;1035.91;;;10.20;85.04
64230;BME280;50547;49.498;0.092;2023-02-10T07:53:28;1035.91;;;10.18;85.04
64230;BME280;50547;49.498;0.092;2023-02-10T07:55:57;1036.03;;;10.01;85.83
64230;BME280;50547;49.498;0.092;2023-02-10T07:58:26;1036.03;;;9.79;86.93
64230;BME280;50547;49.498;0.092;2023-02-10T08:00:57;1036.05;;;10.00;85.68
64230;BME280;50547;49.498;0.092;2023-02-10T08:03:26;1035.97;;;10.09;85.22
64230;BME280;50547;49.498;0.092;2023-02-10T08:05:55;1035.93;;;9.97;85.75
64230;BME280;50547;49.498;0.092;2023-02-10T08:08:24;1035.97;;;9.81;86.83
64230;BME280;50547;49.498;0.092;2023-02-10T08:10:53;1036.03;;;9.74;86.62
64230;BME280;50547;49.498;0.092;2023-02-10T08:13:23;1036.09;;;9.87;85.92
64230;BME280;50547;49.498;0.092;2023-02-10T08:15:49;1036.11;;;9.99;85.37
64230;BME280;50547;49.498;0.092;2023-02-10T08:18:28;1036.05;;;10.12;84.82
64230;BME280;50547;49.498;0.092;2023-02-10T08:20:58;1036.01;;;10.33;83.98
64230;BME280;50547;49.498;0.092;2023-02-10T08:23:27;1035.99;;;10.33;84.30
64230;BME280;50547;49.498;0.092;2023-02-10T08:25:56;1036.03;;;10.46;84.24
64230;BME280;50547;49.498;0.092;2023-02-10T08:28:25;1035.97;;;10.62;83.85
64230;BME280;50547;49.498;0.092;2023-02-10T08:30:58;1035.99;;;10.80;83.41
64230;BME280;50547;49.498;0.092;2023-02-10T08:33:39;1036.05;;;10.91;83.24
64230;BME280;50547;49.498;0.092;2023-02-10T08:36:10;1036.11;;;10.48;84.14
64230;BME280;50547;49.498;0.092;2023-02-10T08:38:40;1036.15;;;10.02;84.79
64230;BME280;50547;49.498;0.092;2023-02-10T08:41:09;1036.21;;;9.83;85.14
64230;BME280;50547;49.498;0.092;2023-02-10T08:43:38;1036.25;;;10.17;83.49
64230;BME280;50547;49.498;0.092;2023-02-10T08:46:07;1036.27;;;10.44;82.82
64230;BME280;50547;49.498;0.092;2023-02-10T08:48:37;1036.29;;;10.44;82.79
64230;BME280;50547;49.498;0.092;2023-02-10T08:51:07;1036.21;;;10.65;82.50
64230;BME280;50547;49.498;0.092;2023-02-10T08:53:37;1036.23;;;10.82;81.96
64230;BME280;50547;49.498;0.092;2023-02-10T08:56:09;1036.40;;;11.15;81.49
64230;BME280;50547;49.498;0.092;2023-02-10T08:58:39;1036.47;;;11.14;81.91
64230;BME280;50547;49.498;0.092;2023-02-10T09:01:24;1036.49;;;11.12;82.28
64230;BME280;50547;49.498;0.092;2023-02-10T09:04:03;1036.47;;;11.12;81.82
64230;BME280;50547;49.498;0.092;2023-02-10T09:06:35;1036.47;;;10.89;82.34
64230;BME280;50547;49.498;0.092;2023-02-10T09:09:05;1036.47;;;10.85;82.63
64230;BME280;50547;49.498;0.092;2023-02-10T09:11:34;1036.57;;;10.65;83.14
64230;BME280;50547;49.498;0.092;2023-02-10T09:14:04;1036.55;;;10.30;83.93
64230;BME280;50547;49.498;0.092;2023-02-10T09:16:34;1036.63;;;10.41;83.13
64230;BME280;50547;49.498;0.092;2023-02-10T09:19:03;1036.65;;;10.70;81.74
64230;BME280;50547;49.498;0.092;2023-02-10T09:21:32;1036.65;;;10.76;81.72
64230;BME280;50547;49.498;0.092;2023-02-10T09:24:01;1036.65;;;10.67;82.34
64230;BME280;50547;49.498;0.092;2023-02-10T09:26:31;1036.71;;;10.83;81.36
64230;BME280;50547;49.498;0.092;2023-02-10T09:29:00;1036.69;;;11.14;80.73
64230;BME280;50547;49.498;0.092;2023-02-10T09:31:30;1036.69;;;11.35;80.36
64230;BME280;50547;49.498;0.092;2023-02-10T09:33:56;1036.65;;;11.40;79.87
64230;BME280;50547;49.498;0.092;2023-02-10T09:36:25;1036.61;;;10.94;81.29
64230;BME280;50547;49.498;0.092;2023-02-10T09:38:55;1036.61;;;10.87;81.63
64230;BME280;50547;49.498;0.092;2023-02-10T09:41:39;1036.63;;;11.12;80.80
64230;BME280;50547;49.498;0.092;2023-02-10T09:44:15;1036.59;;;11.11;80.22
64230;BME280;50547;49.498;0.092;2023-02-10T09:47:01;1036.59;;;11.08;80.79
64230;BME280;50547;49.498;0.092;2023-02-10T09:53:37;1036.77;;;11.91;78.61
64230;BME280;50547;49.498;0.092;2023-02-10T09:56:11;1036.71;;;11.57;79.51
64230;BME280;50547;49.498;0.092;2023-02-10T09:58:45;1036.73;;;11.46;80.04
64230;BME280;50547;49.498;0.092;2023-02-10T10:01:18;1036.73;;;11.38;80.52
64230;BME280;50547;49.498;0.092;2023-02-10T10:03:52;1036.73;;;11.39;80.52
64230;BME280;50547;49.498;0.092;2023-02-10T10:06:27;1036.67;;;11.20;81.24
64230;BME280;50547;49.498;0.092;2023-02-10T10:09:05;1036.65;;;10.77;82.49
64230;BME280;50547;49.498;0.092;2023-02-10T10:11:44;1036.69;;;10.67;83.10
64230;BME280;50547;49.498;0.092;2023-02-10T10:14:19;1036.75;;;10.69;82.45
64230;BME280;50547;49.498;0.092;2023-02-10T10:17:02;1036.81;;;10.84;81.83
64230;BME280;50547;49.498;0.092;2023-02-10T10:19:44;1036.79;;;10.70;82.17
64230;BME280;50547;49.498;0.092;2023-02-10T10:22:27;1036.77;;;10.78;81.94
64230;BME280;50547;49.498;0.092;2023-02-10T10:25:15;1036.75;;;11.11;80.45
64230;BME280;50547;49.498;0.092;2023-02-10T10:27:55;1036.81;;;11.09;80.67
64230;BME280;50547;49.498;0.092;2023-02-10T10:30:34;1036.83;;;11.23;80.32
64230;BME280;50547;49.498;0.092;2023-02-10T10:33:20;1036.91;;;11.27;80.00
64230;BME280;50547;49.498;0.092;2023-02-10T10:35:49;1036.92;;;11.58;79.61
64230;BME280;50547;49.498;0.092;2023-02-10T10:38:21;1036.94;;;11.84;78.99
64230;BME280;50547;49.498;0.092;2023-02-10T10:40:53;1036.94;;;12.10;78.79
64230;BME280;50547;49.498;0.092;2023-02-10T10:43:26;1036.91;;;12.24;78.25
64230;BME280;50547;49.498;0.092;2023-02-10T10:45:59;1036.87;;;12.28;78.48
64230;BME280;50547;49.498;0.092;2023-02-10T10:48:31;1036.85;;;12.28;77.49
64230;BME280;50547;49.498;0.092;2023-02-10T10:51:03;1036.87;;;12.37;77.55
64230;BME280;50547;49.498;0.092;2023-02-10T10:53:38;1036.85;;;12.29;77.94
64230;BME280;50547;49.498;0.092;2023-02-10T10:56:15;1036.83;;;12.42;77.74
64230;BME280;50547;49.498;0.092;2023-02-10T10:58:45;1036.83;;;12.59;77.42
64230;BME280;50547;49.498;0.092;2023-02-10T11:01:16;1036.79;;;12.57;77.13
64230;BME280;50547;49.498;0.092;2023-02-10T11:03:46;1036.81;;;12.75;76.86
64230;BME280;50547;49.498;0.092;2023-02-10T11:06:16;1036.75;;;12.96;76.22
64230;BME280;50547;49.498;0.092;2023-02-10T11:08:54;1036.73;;;13.07;75.36
64230;BME280;50547;49.498;0.092;2023-02-10T11:11:32;1036.71;;;13.13;75.18
64230;BME280;50547;49.498;0.092;2023-02-10T11:14:10;1036.73;;;12.79;76.32
64230;BME280;50547;49.498;0.092;2023-02-10T11:16:43;1036.73;;;12.91;75.82
64230;BME280;50547;49.498;0.092;2023-02-10T11:19:19;1036.69;;;13.07;75.26
64230;BME280;50547;49.498;0.092;2023-02-10T11:21:50;1036.67;;;12.86;75.62
64230;BME280;50547;49.498;0.092;2023-02-10T11:24:22;1036.63;;;12.81;75.87
64230;BME280;50547;49.498;0.092;2023-02-10T11:26:57;1036.61;;;12.59;76.60
64230;BME280;50547;49.498;0.092;2023-02-10T11:29:28;1036.59;;;12.15;77.51
64230;BME280;50547;49.498;0.092;2023-02-10T11:31:59;1036.63;;;11.98;78.16
64230;BME280;50547;49.498;0.092;2023-02-10T11:34:30;1036.61;;;12.38;76.43
64230;BME280;50547;49.498;0.092;2023-02-10T11:37:10;1036.59;;;12.06;76.92
64230;BME280;50547;49.498;0.092;2023-02-10T11:39:42;1036.59;;;12.26;76.46
64230;BME280;50547;49.498;0.092;2023-02-10T11:42:16;1036.65;;;12.43;75.56
64230;BME280;50547;49.498;0.092;2023-02-10T11:44:53;1036.65;;;12.78;74.13
64230;BME280;50547;49.498;0.092;2023-02-10T11:47:23;1036.57;;;13.07;73.02
64230;BME280;50547;49.498;0.092;2023-02-10T11:49:50;1036.53;;;13.01;73.85
64230;BME280;50547;49.498;0.092;2023-02-10T11:52:22;1036.44;;;12.91;74.40
64230;BME280;50547;49.498;0.092;2023-02-10T11:54:51;1036.42;;;13.01;73.81
64230;BME280;50547;49.498;0.092;2023-02-10T11:57:25;1036.42;;;12.97;74.31
64230;BME280;50547;49.498;0.092;2023-02-10T12:00:07;1036.44;;;13.05;73.81
64230;BME280;50547;49.498;0.092;2023-02-10T12:02:50;1036.44;;;13.18;73.34
64230;BME280;50547;49.498;0.092;2023-02-10T12:05:27;1036.29;;;13.37;72.96
64230;BME280;50547;49.498;0.092;2023-02-10T12:08:06;1036.23;;;13.50;72.33
64230;BME280;50547;49.498;0.092;2023-02-10T12:10:42;1036.21;;;13.52;72.41
64230;BME280;50547;49.498;0.092;2023-02-10T12:13:20;1036.23;;;13.33;72.75
64230;BME280;50547;49.498;0.092;2023-02-10T12:15:57;1036.25;;;13.29;73.07
64230;BME280;50547;49.498;0.092;2023-02-10T12:18:39;1036.38;;;13.61;72.08
64230;BME280;50547;49.498;0.092;2023-02-10T12:21:22;1036.38;;;13.62;72.09
64230;BME280;50547;49.498;0.092;2023-02-10T12:24:06;1036.27;;;13.99;70.70
64230;BME280;50547;49.498;0.092;2023-02-10T12:26:44;1036.19;;;13.27;72.47
64230;BME280;50547;49.498;0.092;2023-02-10T12:29:22;1036.21;;;13.26;72.67
64230;BME280;50547;49.498;0.092;2023-02-10T12:31:59;1036.19;;;13.56;71.07
64230;BME280;50547;49.498;0.092;2023-02-10T12:34:42;1036.21;;;13.61;71.16
64230;BME280;50547;49.498;0.092;2023-02-10T12:37:25;1036.19;;;13.64;71.13
64230;BME280;50547;49.498;0.092;2023-02-10T12:40:18;1036.19;;;13.71;70.88
64230;BME280;50547;49.498;0.092;2023-02-10T12:42:55;1036.19;;;13.82;70.62
64230;BME280;50547;49.498;0.092;2023-02-10T12:45:31;1036.13;;;13.91;70.39
64230;BME280;50547;49.498;0.092;2023-02-10T12:48:15;1036.09;;;13.94;70.83
64230;BME280;50547;49.498;0.092;2023-02-10T12:51:01;1036.07;;;13.90;70.84
64230;BME280;50547;49.498;0.092;2023-02-10T12:53:34;1036.17;;;14.07;70.59
64230;BME280;50547;49.498;0.092;2023-02-10T12:56:08;1036.21;;;14.04;70.62
64230;BME280;50547;49.498;0.092;2023-02-10T12:58:40;1036.21;;;13.82;71.66
64230;BME280;50547;49.498;0.092;2023-02-10T13:01:13;1036.19;;;12.25;79.44
64230;BME280;50547;49.498;0.092;2023-02-10T13:03:48;1036.19;;;11.65;81.85
64230;BME280;50547;49.498;0.092;2023-02-10T13:06:25;1036.09;;;11.10;83.24
64230;BME280;50547;49.498;0.092;2023-02-10T13:08:58;1036.09;;;10.86;82.88
64230;BME280;50547;49.498;0.092;2023-02-10T13:11:35;1036.09;;;10.69;83.57
64230;BME280;50547;49.498;0.092;2023-02-10T13:14:08;1036.05;;;10.91;82.00
64230;BME280;50547;49.498;0.092;2023-02-10T13:16:39;1036.07;;;11.22;80.32
64230;BME280;50547;49.498;0.092;2023-02-10T13:19:20;1035.99;;;10.96;81.58
64230;BME280;50547;49.498;0.092;2023-02-10T13:21:58;1035.97;;;10.96;80.99
64230;BME280;50547;49.498;0.092;2023-02-10T13:24:35;1035.95;;;11.03;80.46
64230;BME280;50547;49.498;0.092;2023-02-10T13:27:14;1035.99;;;10.82;81.04
64230;BME280;50547;49.498;0.092;2023-02-10T13:29:54;1035.93;;;11.00;80.22
64230;BME280;50547;49.498;0.092;2023-02-10T13:32:36;1035.99;;;11.10;79.08
64230;BME280;50547;49.498;0.092;2023-02-10T13:35:13;1036.01;;;11.16;78.09
64230;BME280;50547;49.498;0.092;2023-02-10T13:37:46;1036.03;;;11.24;77.39
64230;BME280;50547;49.498;0.092;2023-02-10T13:40:19;1035.99;;;11.32;77.41
64230;BME280;50547;49.498;0.092;2023-02-10T13:42:51;1035.99;;;11.24;77.70
64230;BME280;50547;49.498;0.092;2023-02-10T13:45:23;1036.01;;;11.19;78.50
64230;BME280;50547;49.498;0.092;2023-02-10T13:47:56;1036.05;;;11.20;78.70